Time;durP1;ratioP1;P1;durP2;ratioP2;P2;SDS_P1;SDS_P2;PMS_P1;PMS_P2;Temp;Humidity;BMP_temperature;BMP_pressure;BME280_temperature;BME280_humidity;BME280_pressure;Samples;Min_cycle;Max_cycle;Signal;HPM_P1;HPM_P2
2022/05/14 00:01:01;;;;;;;;;5.20;4.20;;;;;17.87;43.53;101542.09;5058179;28;46265;-46
2022/05/14 00:03:28;;;;;;;;;4.00;4.00;;;;;18.23;43.75;101608.78;5058947;28;45422;-46
2022/05/14 00:05:54;;;;;;;;;4.40;3.20;;;;;18.25;43.70;101621.34;5058711;28;45510;-49
2022/05/14 00:08:21;;;;;;;;;3.20;3.20;;;;;18.19;43.57;101618.69;5058738;28;45445;-51
2022/05/14 00:13:30;;;;;;;;;5.00;4.40;;;;;18.10;43.93;101607.09;5058613;28;45484;-48
2022/05/14 00:15:56;;;;;;;;;7.00;4.00;;;;;18.14;43.86;101614.72;5059077;28;45368;-52
2022/05/14 00:18:23;;;;;;;;;3.50;3.50;;;;;17.83;43.69;101569.50;5058749;28;45427;-48
2022/05/14 00:20:52;;;;;;;;;4.40;4.40;;;;;18.13;43.56;101613.03;5057273;28;48118;-50
2022/05/14 00:23:17;;;;;;;;;3.00;3.00;;;;;18.04;43.71;101577.47;5058492;28;45362;-47
2022/05/14 00:25:43;;;;;;;;;5.00;5.00;;;;;18.19;43.20;101591.75;5058509;28;45417;-49
2022/05/14 00:28:08;;;;;;;;;5.00;4.50;;;;;18.39;43.18;101615.53;5058724;28;45317;-47
2022/05/14 00:30:34;;;;;;;;;7.00;6.00;;;;;18.37;43.60;101612.97;5058256;28;45655;-47
2022/05/14 00:33:00;;;;;;;;;6.20;5.00;;;;;18.18;43.74;101608.69;5056854;28;45408;-47
2022/05/14 00:35:26;;;;;;;;;5.00;5.00;;;;;17.90;44.25;101602.72;5036754;28;45839;-48
2022/05/14 00:37:51;;;;;;;;;4.50;4.50;;;;;17.96;44.12;101609.22;5038554;28;45385;-49
2022/05/14 00:40:25;;;;;;;;;5.00;5.00;;;;;17.67;44.32;101571.06;5037639;28;46788;-49
2022/05/14 00:42:52;;;;;;;;;5.60;4.40;;;;;17.94;44.03;101605.84;5038391;28;45474;-51
2022/05/14 00:45:17;;;;;;;;;4.00;4.00;;;;;17.92;44.13;101603.31;5037930;28;45403;-49
2022/05/14 00:47:45;;;;;;;;;3.50;3.00;;;;;17.77;44.41;101603.78;5037269;28;45440;-50
2022/05/14 00:50:27;;;;;;;;;6.00;6.00;;;;;17.79;44.70;101598.00;5037751;28;45328;-47
2022/05/14 00:52:57;;;;;;;;;5.40;3.20;;;;;17.74;44.46;101599.56;5070366;28;45381;-47
2022/05/14 00:55:23;;;;;;;;;5.40;4.80;;;;;17.67;44.84;101592.44;5052827;28;45232;-46
2022/05/14 00:57:48;;;;;;;;;6.50;4.00;;;;;17.54;44.69;101566.59;5070768;28;45464;-47
2022/05/14 01:00:17;;;;;;;;;6.00;4.00;;;;;17.67;44.73;101579.38;5036489;28;46824;-47
2022/05/14 01:02:42;;;;;;;;;4.00;3.60;;;;;17.84;44.60;101584.25;5069666;28;45999;-48
2022/05/14 01:05:09;;;;;;;;;3.00;3.00;;;;;17.88;44.41;101580.75;5070106;28;45484;-47
2022/05/14 01:07:36;;;;;;;;;5.00;4.00;;;;;17.91;44.38;101592.44;5053253;28;45358;-47
2022/05/14 01:10:03;;;;;;;;;6.40;4.20;;;;;17.92;43.88;101585.81;5035403;28;45455;-47
2022/05/14 01:12:29;;;;;;;;;4.60;3.80;;;;;18.00;43.77;101591.00;5036297;28;45382;-47
2022/05/14 01:15:05;;;;;;;;;6.80;4.00;;;;;17.84;43.77;101557.34;5037428;28;45453;-48
2022/05/14 01:17:31;;;;;;;;;4.00;4.00;;;;;17.84;43.60;101554.56;5051821;28;45301;-48
2022/05/14 01:19:56;;;;;;;;;3.00;3.00;;;;;18.03;43.57;101576.63;5037118;28;46313;-49
2022/05/14 01:23:09;;;;;;;;;5.00;4.00;;;;;18.05;43.52;101574.50;5037622;28;45326;-47
2022/05/14 01:26:29;;;;;;;;;4.00;4.00;;;;;18.04;43.87;101583.03;5034838;28;45615;-50
2022/05/14 01:29:13;;;;;;;;;4.40;4.40;;;;;17.84;44.48;101573.13;4955801;28;45437;-50
2022/05/14 01:31:42;;;;;;;;;4.80;3.00;;;;;17.79;44.40;101584.13;5035964;28;46103;-46
2022/05/14 01:34:10;;;;;;;;;7.00;5.80;;;;;17.77;44.53;101578.78;5035787;28;45292;-50
2022/05/14 01:36:37;;;;;;;;;8.60;5.60;;;;;17.78;44.77;101574.97;5037384;28;45331;-52
2022/05/14 01:39:03;;;;;;;;;8.00;5.00;;;;;17.79;44.72;101575.78;5037414;28;45596;-52
2022/05/14 01:41:28;;;;;;;;;4.00;4.00;;;;;17.74;44.66;101580.16;5036089;28;46425;-48
2022/05/14 01:43:54;;;;;;;;;6.25;4.75;;;;;17.84;44.67;101578.69;5036962;28;45399;-46
2022/05/14 01:46:19;;;;;;;;;4.50;4.00;;;;;17.78;44.38;101557.44;5037480;28;45366;-51
2022/05/14 01:48:46;;;;;;;;;3.50;3.50;;;;;17.91;44.41;101570.22;5037407;28;45358;-50
2022/05/14 01:51:12;;;;;;;;;6.40;5.00;;;;;17.60;44.44;101531.47;5035355;28;46976;-51
2022/05/14 01:53:37;;;;;;;;;4.60;4.60;;;;;17.74;44.97;101571.81;5037145;28;45382;-50
2022/05/14 01:56:03;;;;;;;;;5.75;4.75;;;;;17.70;44.72;101575.28;5036731;28;45654;-47
2022/05/14 01:58:38;;;;;;;;;7.00;6.00;;;;;17.48;44.55;101529.56;5017954;28;45440;-49
2022/05/14 02:01:23;;;;;;;;;2.00;2.00;;;;;17.78;44.24;101566.63;5056275;28;46658;-49
2022/05/14 02:04:04;;;;;;;;;4.00;2.40;;;;;17.80;43.99;101564.44;5055971;28;45452;-50
2022/05/14 02:06:30;;;;;;;;;4.80;3.20;;;;;17.81;43.96;101571.69;5056975;28;45366;-50
2022/05/14 02:08:56;;;;;;;;;2.75;2.75;;;;;17.30;43.93;101486.06;5056978;28;45331;-47
2022/05/14 02:11:22;;;;;;;;;4.00;4.00;;;;;17.62;43.95;101537.66;5055367;28;47226;-47
2022/05/14 02:13:49;;;;;;;;;4.50;4.50;;;;;17.84;43.94;101564.81;5056840;28;45271;-48
2022/05/14 02:16:14;;;;;;;;;4.20;3.80;;;;;17.73;43.68;101561.78;5056319;28;45389;-49
2022/05/14 02:18:40;;;;;;;;;8.00;5.00;;;;;17.59;43.95;101535.34;5055847;28;45289;-51
2022/05/14 02:21:05;;;;;;;;;4.50;4.00;;;;;17.58;44.44;101558.63;5056306;28;46217;-48
2022/05/14 02:23:32;;;;;;;;;4.50;3.00;;;;;17.62;44.59;101551.53;5056938;28;45295;-51
2022/05/14 02:25:57;;;;;;;;;4.20;3.80;;;;;17.59;44.63;101560.31;5055482;28;45981;-48
2022/05/14 02:28:23;;;;;;;;;6.00;4.00;;;;;17.48;44.72;101559.22;5055337;28;45690;-47
2022/05/14 02:30:49;;;;;;;;;5.25;4.00;;;;;17.41;45.12;101556.56;5056427;28;46168;-48
2022/05/14 02:33:14;;;;;;;;;5.50;4.50;;;;;17.39;45.01;101567.03;5056093;28;45802;-51
2022/05/14 02:35:40;;;;;;;;;4.00;4.00;;;;;17.44;44.91;101561.63;5056664;28;45345;-49
2022/05/14 02:38:06;;;;;;;;;3.60;3.00;;;;;17.41;45.02;101559.34;5037506;28;45548;-48
2022/05/14 02:40:32;;;;;;;;;3.00;3.00;;;;;17.43;44.71;101565.47;5034891;28;47222;-49
2022/05/14 02:42:57;;;;;;;;;3.75;3.50;;;;;17.47;44.73;101561.13;5068996;28;45396;-49
2022/05/14 02:45:23;;;;;;;;;2.00;2.00;;;;;17.17;44.72;101534.31;5036066;28;45340;-48
2022/05/14 02:47:48;;;;;;;;;5.25;2.50;;;;;17.34;44.49;101555.78;5036638;28;45523;-49
2022/05/14 02:50:14;;;;;;;;;2.00;2.00;;;;;17.41;44.23;101567.66;5035905;28;46823;-48
2022/05/14 02:52:39;;;;;;;;;3.00;3.00;;;;;17.28;44.02;101532.63;5036256;28;45323;-48
2022/05/14 02:55:06;;;;;;;;;2.00;1.25;;;;;17.33;43.92;101531.91;5036041;28;45370;-48
2022/05/14 02:57:32;;;;;;;;;2.00;2.00;;;;;17.58;43.95;101569.72;5035911;28;45383;-48
2022/05/14 02:59:57;;;;;;;;;3.25;3.25;;;;;17.56;44.14;101566.34;5036182;28;45714;-47
2022/05/14 03:02:23;;;;;;;;;2.75;2.75;;;;;17.59;43.98;101574.19;5035786;28;45306;-49
2022/05/14 03:04:48;;;;;;;;;2.75;2.75;;;;;17.62;43.75;101573.72;5036539;28;45408;-50
2022/05/14 03:07:15;;;;;;;;;2.25;1.75;;;;;17.60;43.95;101568.41;5035871;28;45312;-47
2022/05/14 03:09:41;;;;;;;;;2.00;2.00;;;;;17.66;43.63;101571.31;5035516;28;46679;-47
2022/05/14 03:12:07;;;;;;;;;3.00;3.00;;;;;17.33;44.01;101543.00;5035730;28;45284;-48
2022/05/14 03:14:33;;;;;;;;;4.00;3.40;;;;;17.50;44.09;101559.81;5035715;28;45271;-48
2022/05/14 03:16:59;;;;;;;;;3.25;2.00;;;;;17.56;43.78;101566.34;5036129;28;45349;-49
2022/05/14 03:19:24;;;;;;;;;1.25;1.00;;;;;17.52;43.82;101567.91;5035551;28;46181;-52
2022/05/14 03:21:50;;;;;;;;;1.00;1.00;;;;;17.43;44.08;101561.84;5035639;28;45398;-49
2022/05/14 03:24:15;;;;;;;;;1.75;1.75;;;;;17.23;44.36;101564.97;5035985;28;45313;-49
2022/05/14 03:26:41;;;;;;;;;2.00;2.00;;;;;17.23;44.44;101560.25;5035851;28;45497;-50
2022/05/14 03:29:07;;;;;;;;;1.25;1.25;;;;;17.21;44.38;101565.19;5067975;28;45424;-53
2022/05/14 03:31:33;;;;;;;;;1.00;1.00;;;;;17.27;44.41;101568.94;5035534;28;45377;-50
2022/05/14 03:33:58;;;;;;;;;2.00;2.00;;;;;17.32;43.92;101571.84;5038233;28;45363;-48
2022/05/14 03:36:24;;;;;;;;;2.25;2.25;;;;;17.19;44.54;101551.53;5039326;28;45355;-49
2022/05/14 03:38:49;;;;;;;;;4.00;2.50;;;;;17.29;44.23;101564.00;5038928;28;47179;-49
2022/05/14 03:41:16;;;;;;;;;2.00;1.00;;;;;17.26;44.60;101568.09;5039143;28;45393;-47
2022/05/14 03:43:44;;;;;;;;;1.60;1.60;;;;;16.90;44.40;101504.19;5039255;28;45288;-47
2022/05/14 03:46:09;;;;;;;;;3.00;3.00;;;;;17.13;44.69;101563.59;5039209;28;45447;-51
2022/05/14 03:48:36;;;;;;;;;1.75;1.75;;;;;17.17;44.70;101563.97;5038715;28;46287;-52
2022/05/14 03:51:02;;;;;;;;;5.40;4.00;;;;;17.11;44.62;101559.34;5039148;28;45323;-49
2022/05/14 03:53:27;;;;;;;;;3.50;3.50;;;;;17.04;44.99;101563.06;5021318;28;45395;-51
2022/05/14 03:55:53;;;;;;;;;2.75;2.75;;;;;16.98;44.91;101569.56;5038886;28;45367;-48
2022/05/14 03:58:18;;;;;;;;;3.25;2.00;;;;;16.91;45.11;101563.22;5038895;28;46283;-48
2022/05/14 04:00:44;;;;;;;;;2.25;2.25;;;;;16.61;45.51;101537.22;5038427;28;45279;-49
2022/05/14 04:03:11;;;;;;;;;6.50;4.00;;;;;16.85;45.39;101561.41;5038682;28;45362;-50
2022/05/14 04:05:36;;;;;;;;;3.00;3.00;;;;;16.79;45.33;101565.94;5038976;28;45544;-52
2022/05/14 04:08:02;;;;;;;;;3.00;1.25;;;;;16.79;45.24;101543.78;5038080;28;46454;-49
2022/05/14 04:10:27;;;;;;;;;3.00;1.00;;;;;16.90;45.34;101561.53;5038390;28;45219;-49
2022/05/14 04:12:53;;;;;;;;;5.00;1.25;;;;;16.86;45.59;101565.88;5038069;28;45287;-46
2022/05/14 04:15:19;;;;;;;;;5.00;2.60;;;;;16.80;45.54;101562.97;5038763;28;45434;-47
2022/05/14 04:17:44;;;;;;;;;2.25;1.00;;;;;16.72;45.66;101549.44;5036669;28;48085;-49
2022/05/14 04:20:10;;;;;;;;;1.50;1.50;;;;;16.77;45.57;101557.88;5038098;28;45386;-48
2022/05/14 04:22:36;;;;;;;;;2.00;2.00;;;;;16.82;45.48;101562.72;5037043;28;45457;-46
2022/05/14 04:25:01;;;;;;;;;3.50;2.00;;;;;16.89;45.69;101568.16;5038394;28;45840;-47
2022/05/14 04:27:27;;;;;;;;;3.75;2.50;;;;;17.02;45.67;101564.41;5037965;28;45597;-48
2022/05/14 04:29:52;;;;;;;;;2.00;2.00;;;;;17.06;45.58;101572.03;5038082;28;45350;-49
2022/05/14 04:32:18;;;;;;;;;2.50;2.00;;;;;17.02;45.78;101567.19;5038235;28;45433;-48
2022/05/14 04:34:45;;;;;;;;;3.00;3.00;;;;;16.86;46.42;101555.63;5038113;28;45646;-48
2022/05/14 04:37:10;;;;;;;;;5.00;3.80;;;;;16.88;46.45;101567.34;5037255;28;46568;-51
2022/05/14 04:39:36;;;;;;;;;4.00;3.00;;;;;16.92;46.55;101562.16;5038080;28;45448;-54
2022/05/14 04:42:04;;;;;;;;;4.00;3.00;;;;;17.03;45.99;101563.31;5037813;28;45272;-47
2022/05/14 04:44:31;;;;;;;;;4.40;3.00;;;;;17.01;45.43;101551.56;5036989;28;45355;-48
2022/05/14 04:46:57;;;;;;;;;3.40;2.20;;;;;17.17;45.56;101575.91;5037673;28;45819;-50
2022/05/14 04:49:22;;;;;;;;;4.50;3.25;;;;;17.07;45.60;101565.38;5037994;28;45489;-47
2022/05/14 04:51:48;;;;;;;;;1.75;1.75;;;;;17.20;45.45;101575.41;5070431;28;45407;-47
2022/05/14 04:54:14;;;;;;;;;3.00;3.00;;;;;17.17;45.43;101575.91;5037789;28;45625;-51
2022/05/14 04:56:39;;;;;;;;;2.00;2.00;;;;;16.91;45.35;101541.03;5037650;28;46613;-48
2022/05/14 04:59:05;;;;;;;;;2.75;2.75;;;;;17.14;45.42;101576.38;5036288;28;45334;-50
2022/05/14 05:01:30;;;;;;;;;3.25;2.75;;;;;17.03;45.62;101575.25;5070072;28;45336;-49
2022/05/14 05:03:57;;;;;;;;;2.75;2.75;;;;;17.04;45.78;101576.09;5038484;28;45195;-47
2022/05/14 05:06:23;;;;;;;;;3.00;2.00;;;;;16.82;45.30;101531.38;5069865;28;47469;-48
2022/05/14 05:08:51;;;;;;;;;2.20;2.20;;;;;16.83;45.60;101541.38;5037890;28;45432;-49
2022/05/14 05:11:18;;;;;;;;;2.20;1.80;;;;;17.09;45.64;101575.38;5037628;28;45354;-48
2022/05/14 05:13:43;;;;;;;;;2.80;2.80;;;;;17.08;45.67;101577.34;5037994;28;45512;-47
2022/05/14 05:16:09;;;;;;;;;1.75;1.50;;;;;16.95;45.66;101570.00;5037535;28;46442;-57
2022/05/14 05:18:35;;;;;;;;;3.20;3.20;;;;;16.89;45.69;101571.81;5037435;28;45291;-51
2022/05/14 05:21:00;;;;;;;;;2.50;2.25;;;;;16.82;46.08;101573.81;5037951;28;45326;-50
2022/05/14 05:23:26;;;;;;;;;3.50;3.50;;;;;16.53;45.93;101541.13;5037305;28;45628;-47
2022/05/14 05:25:51;;;;;;;;;3.00;3.00;;;;;16.89;46.27;101584.81;5037439;28;47444;-49
2022/05/14 05:28:17;;;;;;;;;4.00;1.75;;;;;16.85;45.60;101553.94;5037156;28;45452;-48
2022/05/14 05:30:42;;;;;;;;;5.00;3.00;;;;;17.12;45.49;101581.31;5069827;28;45371;-51
2022/05/14 05:33:12;;;;;;;;;2.50;2.00;;;;;16.66;45.30;101501.31;5036531;28;45358;-51
2022/05/14 05:35:38;;;;;;;;;3.40;3.20;;;;;17.11;45.61;101579.63;5037018;28;46612;-49
2022/05/14 05:38:03;;;;;;;;;2.00;2.00;;;;;17.08;45.34;101580.13;5036959;28;45387;-51
2022/05/14 05:40:29;;;;;;;;;2.75;2.75;;;;;17.03;45.61;101578.03;5037342;28;45478;-50
2022/05/14 05:42:54;;;;;;;;;3.00;1.00;;;;;17.10;45.57;101577.94;5036207;28;45414;-49
2022/05/14 05:45:20;;;;;;;;;1.00;1.00;;;;;17.16;45.55;101590.00;5037299;28;45518;-52
2022/05/14 05:47:45;;;;;;;;;3.00;3.00;;;;;17.12;45.43;101581.31;5036827;28;45413;-51
2022/05/14 05:50:11;;;;;;;;;2.75;2.75;;;;;17.03;45.66;101589.09;5037333;28;45165;-48
2022/05/14 05:52:37;;;;;;;;;3.25;3.00;;;;;17.01;45.68;101587.63;5037172;28;45504;-48
2022/05/14 05:57:46;;;;;;;;;3.40;2.00;;;;;17.06;45.61;101588.66;5048660;28;45364;-52
2022/05/14 06:00:18;;;;;;;;;1.25;1.25;;;;;17.07;45.42;101595.03;5037142;28;45392;-50
2022/05/14 06:02:44;;;;;;;;;3.00;2.00;;;;;17.07;45.69;101592.25;5036569;28;45342;-50
2022/05/14 06:05:10;;;;;;;;;1.60;1.00;;;;;17.08;45.69;101599.53;5036454;28;46085;-48
2022/05/14 06:07:36;;;;;;;;;2.00;2.00;;;;;17.08;45.48;101588.44;5036309;28;45347;-47
2022/05/14 06:10:03;;;;;;;;;3.00;2.25;;;;;17.25;44.90;101596.06;5036649;28;45212;-47
2022/05/14 06:12:29;;;;;;;;;4.20;3.40;;;;;17.32;45.10;101603.22;5035524;28;45501;-54
2022/05/14 06:14:55;;;;;;;;;7.00;5.40;;;;;17.31;44.99;101596.00;5036090;28;46794;-46
2022/05/14 06:17:20;;;;;;;;;4.50;2.25;;;;;17.10;45.32;101582.63;5036699;28;45365;-51
2022/05/14 06:19:46;;;;;;;;;3.00;3.00;;;;;17.20;44.99;101605.09;5036074;28;45350;-48
2022/05/14 06:22:11;;;;;;;;;1.00;1.00;;;;;17.09;45.50;101601.22;5036476;28;45429;-49
2022/05/14 06:24:37;;;;;;;;;3.25;3.25;;;;;16.99;45.23;101579.56;5035090;28;45608;-50
2022/05/14 06:27:03;;;;;;;;;3.50;3.50;;;;;17.26;45.14;101608.84;5068475;28;45361;-50
2022/05/14 06:29:31;;;;;;;;;3.80;3.40;;;;;17.34;44.88;101602.97;5036074;28;45410;-50
2022/05/14 06:31:57;;;;;;;;;6.00;3.80;;;;;17.17;45.23;101583.38;5036117;28;45411;-47
2022/05/14 06:34:23;;;;;;;;;5.00;4.60;;;;;17.19;45.29;101612.56;5035732;28;46534;-51
2022/05/14 06:36:49;;;;;;;;;3.60;3.20;;;;;17.12;45.51;101624.88;5035760;28;45360;-48
2022/05/14 06:39:15;;;;;;;;;4.60;4.00;;;;;17.22;45.30;101624.28;5035784;28;45867;-48
2022/05/14 06:41:40;;;;;;;;;3.75;3.75;;;;;17.34;45.02;101627.94;5036154;28;45445;-48
2022/05/14 06:44:07;;;;;;;;;3.00;3.00;;;;;17.45;44.81;101615.22;5035361;28;46525;-51
2022/05/14 06:46:34;;;;;;;;;6.00;4.00;;;;;17.43;44.59;101609.88;5035993;28;45394;-49
2022/05/14 06:48:59;;;;;;;;;6.40;4.60;;;;;17.45;44.92;101616.03;5034416;28;45978;-53
2022/05/14 06:51:26;;;;;;;;;5.00;4.00;;;;;17.52;44.57;101617.84;5036384;28;45632;-49
2022/05/14 06:53:52;;;;;;;;;6.20;4.40;;;;;17.08;44.05;101527.41;5017603;28;46927;-48
2022/05/14 06:56:17;;;;;;;;;5.60;4.20;;;;;17.51;44.12;101591.19;5034301;28;45323;-48
2022/05/14 06:58:43;;;;;;;;;3.75;3.75;;;;;17.68;43.96;101617.19;5017863;28;45354;-50
2022/05/14 07:01:08;;;;;;;;;6.00;4.50;;;;;17.65;44.09;101620.41;5068414;28;45273;-50
2022/05/14 07:06:38;;;;;;;;;4.00;4.00;;;;;17.80;44.03;101617.19;5034616;28;45472;-51
2022/05/14 07:09:10;;;;;;;;;7.00;5.00;;;;;17.77;43.86;101622.38;5033282;28;45426;-51
2022/05/14 07:11:37;;;;;;;;;7.80;5.40;;;;;17.78;44.23;101624.06;4996569;27;45562;-48
2022/05/14 07:14:03;;;;;;;;;4.80;4.00;;;;;17.82;43.97;101620.56;5018961;28;46263;-49
2022/05/14 07:16:29;;;;;;;;;4.00;4.00;;;;;17.87;43.81;101615.16;5025409;28;45450;-48
2022/05/14 07:18:54;;;;;;;;;7.50;6.00;;;;;17.94;43.58;101615.06;5017101;28;45639;-50
2022/05/14 07:21:20;;;;;;;;;7.75;4.50;;;;;17.94;43.42;101612.28;5031621;28;45912;-54
2022/05/14 07:23:45;;;;;;;;;8.00;7.00;;;;;18.00;43.77;101613.22;5028968;28;46932;-51
2022/05/14 07:26:11;;;;;;;;;7.00;5.00;;;;;18.03;43.64;101604.41;5031129;28;45453;-51
2022/05/14 07:28:36;;;;;;;;;8.00;8.00;;;;;18.00;43.65;101611.28;5031458;28;45504;-51
2022/05/14 07:31:02;;;;;;;;;6.00;4.00;;;;;17.94;43.43;101583.66;5031612;28;45809;-49
2022/05/14 07:33:28;;;;;;;;;5.75;4.50;;;;;17.90;43.68;101580.50;5031296;28;45993;-51
2022/05/14 07:35:54;;;;;;;;;5.20;5.20;;;;;18.09;43.38;101609.03;5030487;28;45495;-50
2022/05/14 07:38:20;;;;;;;;;4.00;4.00;;;;;18.04;43.87;101608.03;5029673;28;45577;-50
2022/05/14 07:40:45;;;;;;;;;5.75;3.00;;;;;18.03;43.41;101584.97;5027096;28;45706;-51
2022/05/14 07:43:15;;;;;;;;;3.00;3.00;;;;;18.29;42.66;101608.66;5036876;28;46553;-51
2022/05/14 07:45:42;;;;;;;;;5.40;4.00;;;;;18.18;42.86;101575.34;5048416;28;45521;-51
2022/05/14 07:48:11;;;;;;;;;4.00;4.00;;;;;18.30;42.54;101595.59;5012479;28;45543;-53
2022/05/14 07:50:36;;;;;;;;;3.60;3.60;;;;;18.34;43.00;101598.72;5046683;28;45794;-49
2022/05/14 07:53:02;;;;;;;;;3.75;3.25;;;;;18.31;42.83;101597.31;5029898;28;46528;-51
2022/05/14 07:55:28;;;;;;;;;3.60;2.60;;;;;18.21;42.78;101597.94;5031080;28;45363;-47
2022/05/14 07:57:53;;;;;;;;;5.50;5.50;;;;;18.20;43.59;101590.66;5063203;28;45696;-53
2022/05/14 08:00:19;;;;;;;;;6.00;6.00;;;;;18.40;43.12;101593.06;5030564;28;45336;-56
2022/05/14 08:02:45;;;;;;;;;5.00;3.50;;;;;18.54;43.06;101595.56;5030676;28;46356;-51
2022/05/14 08:05:11;;;;;;;;;3.25;3.25;;;;;18.42;42.49;101556.69;5030760;28;45813;-48
2022/05/14 08:07:37;;;;;;;;;7.80;3.00;;;;;18.59;42.22;101567.88;5030544;28;45509;-49
2022/05/14 08:10:03;;;;;;;;;5.25;4.75;;;;;18.76;42.60;101592.97;5012598;28;45575;-54
2022/05/14 08:12:39;;;;;;;;;5.40;4.40;;;;;18.69;42.30;101579.19;5020775;27;46365;-55
2022/05/14 08:15:06;;;;;;;;;2.20;2.20;;;;;18.52;42.95;101565.22;5030905;28;45811;-51
2022/05/14 08:17:31;;;;;;;;;4.00;4.00;;;;;18.63;42.55;101587.69;5030276;28;45445;-51
2022/05/14 08:19:57;;;;;;;;;3.00;3.00;;;;;18.68;42.56;101585.84;5033206;28;45346;-53
2022/05/14 08:25:07;;;;;;;;;3.20;3.20;;;;;18.92;42.71;101587.72;5034188;28;45816;-50
2022/05/14 08:27:44;;;;;;;;;3.75;3.75;;;;;18.99;42.53;101588.41;5033768;28;45381;-51
2022/05/14 08:30:20;;;;;;;;;3.80;3.80;;;;;19.06;41.77;101586.34;5034154;28;45753;-52
2022/05/14 08:32:46;;;;;;;;;5.00;4.00;;;;;19.02;41.90;101589.84;5033756;28;46510;-50
2022/05/14 08:35:12;;;;;;;;;6.00;4.50;;;;;19.08;42.75;101580.53;5031371;28;45531;-52
2022/05/14 08:37:37;;;;;;;;;4.00;4.00;;;;;19.15;42.02;101586.78;5065924;28;45780;-54
2022/05/14 08:40:10;;;;;;;;;5.50;3.75;;;;;19.20;41.57;101580.47;5026659;28;45931;-53
2022/05/14 08:42:36;;;;;;;;;4.00;4.00;;;;;19.29;41.41;101578.13;5031895;28;46671;-54
2022/05/14 08:45:02;;;;;;;;;3.60;2.60;;;;;19.43;41.56;101581.44;4986805;28;45901;-49
2022/05/14 08:47:31;;;;;;;;;4.00;4.00;;;;;19.37;41.53;101564.66;5031333;28;45500;-50
2022/05/14 08:49:56;;;;;;;;;2.00;2.00;;;;;19.61;41.66;101583.16;5048083;28;45725;-51
2022/05/14 08:52:25;;;;;;;;;6.25;3.75;;;;;19.39;40.89;101552.44;5032846;28;45832;-52
2022/05/14 08:54:53;;;;;;;;;5.00;3.80;;;;;19.43;40.97;101528.56;5030660;28;45890;-48
2022/05/14 08:57:25;;;;;;;;;7.80;3.40;;;;;19.81;40.20;101570.66;5033057;28;45575;-47
2022/05/14 08:59:55;;;;;;;;;6.60;5.20;;;;;19.68;39.98;101542.06;5031487;28;45528;-48
2022/05/14 09:02:45;;;;;;;;;4.00;2.80;;;;;19.88;40.28;101574.97;5031928;28;46463;-46
2022/05/14 09:05:14;;;;;;;;;4.00;4.00;;;;;19.92;40.11;101572.50;5032081;28;45488;-47
2022/05/14 09:07:39;;;;;;;;;6.60;6.00;;;;;19.97;39.98;101571.78;5032562;28;45541;-53
2022/05/14 09:10:08;;;;;;;;;4.00;4.00;;;;;20.04;39.54;101578.00;5030655;28;46067;-47
2022/05/14 09:12:35;;;;;;;;;2.40;2.40;;;;;20.07;39.85;101577.50;5022773;27;46022;-53
2022/05/14 09:15:04;;;;;;;;;2.40;2.40;;;;;20.13;39.72;101575.63;5064457;28;46276;-49
2022/05/14 09:17:30;;;;;;;;;3.00;3.00;;;;;20.15;39.68;101570.63;5032186;28;45422;-46
2022/05/14 09:19:57;;;;;;;;;3.25;3.25;;;;;20.24;39.21;101559.88;5031647;28;45477;-46
2022/05/14 09:22:22;;;;;;;;;5.40;5.00;;;;;20.18;39.37;101548.66;5032212;28;45674;-47
2022/05/14 09:25:18;;;;;;;;;5.00;5.00;;;;;19.94;39.69;101489.50;5031804;28;45475;-52
2022/05/14 09:27:47;;;;;;;;;4.60;4.00;;;;;20.45;39.08;101564.63;5063039;28;45896;-47
2022/05/14 09:30:43;;;;;;;;;2.80;2.40;;;;;20.54;38.86;101555.84;5032393;28;45458;-47
2022/05/14 09:33:21;;;;;;;;;3.00;3.00;;;;;20.56;38.82;101556.41;5031580;28;45523;-47
2022/05/14 09:35:56;;;;;;;;;3.40;2.80;;;;;20.60;38.80;101554.78;5031945;28;45441;-48
2022/05/14 09:38:23;;;;;;;;;5.60;5.60;;;;;20.68;38.70;101553.47;5033009;28;45388;-52
2022/05/14 09:40:49;;;;;;;;;5.20;4.00;;;;;20.68;38.30;101553.47;5032557;28;45786;-48
2022/05/14 09:43:15;;;;;;;;;6.20;4.80;;;;;20.68;38.46;101550.69;5031303;28;46057;-51
2022/05/14 09:45:43;;;;;;;;;4.50;4.50;;;;;20.66;37.95;101550.09;5029054;28;45566;-49
2022/05/14 09:48:19;;;;;;;;;4.00;4.00;;;;;20.63;38.28;101545.03;5023622;28;45567;-48
2022/05/14 09:50:56;;;;;;;;;3.20;3.20;;;;;20.62;39.18;101549.78;5016549;28;45857;-48
2022/05/14 09:53:27;;;;;;;;;4.00;4.00;;;;;20.61;38.75;101520.22;5032619;28;45800;-51
2022/05/14 09:56:01;;;;;;;;;4.80;4.80;;;;;20.76;39.07;101536.25;5031087;28;45461;-50
2022/05/14 09:58:42;;;;;;;;;3.60;3.60;;;;;20.77;38.72;101528.75;5032880;28;45842;-49
2022/05/14 10:01:19;;;;;;;;;3.40;3.40;;;;;20.87;38.73;101531.69;5060337;27;45979;-51
2022/05/14 10:04:10;;;;;;;;;4.40;3.20;;;;;20.95;38.35;101528.44;5031404;28;46233;-47
2022/05/14 10:06:55;;;;;;;;;4.80;4.60;;;;;20.87;38.50;101501.00;5059599;28;45388;-49
2022/05/14 10:09:50;;;;;;;;;5.80;3.60;;;;;21.13;38.62;101521.63;5064612;28;45792;-50
2022/05/14 10:12:25;;;;;;;;;3.40;3.40;;;;;21.19;38.29;101525.28;5030452;28;45460;-48
2022/05/14 10:15:25;;;;;;;;;4.80;3.60;;;;;21.13;37.84;101504.03;5022712;27;45815;-46
2022/05/14 10:17:58;;;;;;;;;6.60;5.40;;;;;21.12;37.61;101524.66;5061737;28;45465;-49
2022/05/14 10:20:53;;;;;;;;;4.00;2.40;;;;;20.93;37.97;101491.59;5032150;28;45381;-52
2022/05/14 10:26:46;;;;;;;;;3.60;3.60;;;;;21.22;37.99;101519.19;5019507;28;45450;-47
2022/05/14 10:29:27;;;;;;;;;2.60;2.60;;;;;21.26;37.82;101509.19;5018036;28;45458;-50
2022/05/14 10:32:09;;;;;;;;;3.80;3.60;;;;;21.36;37.78;101525.16;5032420;28;45399;-51
2022/05/14 10:34:49;;;;;;;;;3.00;3.00;;;;;21.37;37.13;101504.53;5031226;28;45527;-46
2022/05/14 10:37:28;;;;;;;;;3.00;2.20;;;;;21.34;37.19;101488.31;5014362;28;47772;-49
2022/05/14 10:40:03;;;;;;;;;4.40;3.00;;;;;21.59;37.31;101508.31;5032090;28;45881;-52
2022/05/14 10:42:48;;;;;;;;;5.00;3.80;;;;;21.58;37.17;101506.63;5030582;28;45441;-48
2022/05/14 10:45:17;;;;;;;;;3.80;3.80;;;;;21.50;37.24;101488.44;5015492;28;45429;-52
2022/05/14 10:47:48;;;;;;;;;3.00;3.00;;;;;21.45;37.10;101472.47;5014285;28;46148;-48
2022/05/14 10:50:19;;;;;;;;;3.00;2.80;;;;;21.69;37.27;101504.75;5013311;28;45551;-50
2022/05/14 10:52:46;;;;;;;;;3.80;2.40;;;;;21.71;37.00;101483.03;5032149;28;45711;-50
2022/05/14 10:55:19;;;;;;;;;3.80;2.80;;;;;21.87;36.94;101493.16;5064397;28;45537;-55
2022/05/14 10:57:47;;;;;;;;;3.40;3.40;;;;;22.01;36.41;101498.25;5030672;28;45814;-54
2022/05/14 11:00:31;;;;;;;;;3.00;3.00;;;;;22.06;35.78;101496.34;5031072;28;45477;-52
2022/05/14 11:03:02;;;;;;;;;3.00;3.00;;;;;22.06;35.98;101498.28;5031968;28;45535;-48
2022/05/14 11:05:29;;;;;;;;;3.20;3.20;;;;;22.14;36.05;101499.75;5030644;28;45651;-55
2022/05/14 11:07:55;;;;;;;;;3.00;3.00;;;;;22.10;35.96;101465.06;5031364;28;46621;-51
2022/05/14 11:11:01;;;;;;;;;4.25;3.00;;;;;22.30;35.44;101493.09;5013431;28;45455;-53
2022/05/14 11:13:27;;;;;;;;;3.00;3.00;;;;;22.15;36.42;101460.31;5018836;28;46586;-48
2022/05/14 11:16:04;;;;;;;;;4.00;3.00;;;;;22.48;35.56;101488.13;5064234;28;45568;-49
2022/05/14 11:18:30;;;;;;;;;4.80;3.60;;;;;22.43;35.63;101462.94;5031709;28;46461;-54
2022/05/14 11:21:00;;;;;;;;;5.50;3.00;;;;;22.52;35.21;101480.88;5031559;28;45569;-52
2022/05/14 11:23:26;;;;;;;;;4.00;4.00;;;;;22.61;35.34;101476.44;5031770;28;45488;-54
2022/05/14 11:26:11;;;;;;;;;6.50;5.00;;;;;22.69;34.70;101482.63;5063243;27;45537;-49
2022/05/14 11:28:37;;;;;;;;;4.40;3.00;;;;;22.52;34.62;101449.28;5063753;28;46178;-49
2022/05/14 11:31:17;;;;;;;;;4.25;4.25;;;;;22.46;34.44;101442.78;5031274;28;45889;-48
2022/05/14 11:33:43;;;;;;;;;6.80;4.60;;;;;22.59;34.40;101433.06;5030399;28;45413;-47
2022/05/14 11:36:12;;;;;;;;;4.00;4.00;;;;;22.83;34.63;101466.97;5064114;28;45524;-50
2022/05/14 11:38:40;;;;;;;;;3.00;3.00;;;;;22.81;34.04;101457.16;5030207;28;45738;-50
2022/05/14 11:41:13;;;;;;;;;10.00;8.20;;;;;22.84;34.00;101457.44;5031298;28;45357;-49
2022/05/14 11:43:42;;;;;;;;;3.80;3.60;;;;;22.82;33.42;101462.50;5030033;28;45514;-50
2022/05/14 11:46:30;;;;;;;;;2.40;2.40;;;;;22.81;33.52;101458.03;5031739;28;45605;-53